Terminal Aerodrome Forecast
Issued by NWS Albuquerque, NM

Home | Current Version | Previous Version | Text Only | Print | Product List | Glossary On
Versions: 1 2 3 4 5 6 7 8 9 10 11 12 13 14 15 16 17
000
FTUS45 KABQ 182300 RRA
TAFABQ
TAF
KABQ 182341Z 1900/1924 31015G25KT P6SM SCT070
     FM190200 32011KT P6SM SCT100
     FM190600 01008KT P6SM SKC
     FM192000 33010G16KT P6SM FEW100=

USA.gov is the U.S. government's official web portal to all federal, state and local government web resources and services.